Terminal Aerodrome Forecast
Issued by NWS Lake Charles, LA

Home | Current Version | Previous Version | Text Only | Print | Product List | Glossary On
Versions: 1 2 3 4 5 6 7 8 9 10 11 12 13 14 15 16 17 18 19
025
FTUS44 KLCH 240927 AAA
TAFLFT
TAF AMD
KLFT 240927Z 2409/2506 15006KT P6SM SCT015
     FM241500 16013G19KT P6SM BKN025
     FM241900 18016G23KT P6SM BKN035
     FM250100 17012KT P6SM VCSH SCT025 BKN040=

USA.gov is the U.S. government's official web portal to all federal, state and local government web resources and services.